sensor_id;sensor_type;location;lat;lon;timestamp;pressure;altitude;pressure_sealevel;temperature;humidity
42587;BME280;28216;53.362;-6.288;2023-04-19T00:00:24;102670.53;;;10.02;100.00
42587;BME280;28216;53.362;-6.288;2023-04-19T00:02:50;102671.81;;;9.96;100.00
42587;BME280;28216;53.362;-6.288;2023-04-19T00:05:15;102679.06;;;9.93;100.00
42587;BME280;28216;53.362;-6.288;2023-04-19T00:07:42;102675.50;;;9.94;100.00
42587;BME280;28216;53.362;-6.288;2023-04-19T00:10:08;102686.19;;;9.91;100.00
42587;BME280;28216;53.362;-6.288;2023-04-19T00:12:33;102691.88;;;9.84;100.00
42587;BME280;28216;53.362;-6.288;2023-04-19T00:14:59;102690.41;;;9.80;100.00
42587;BME280;28216;53.362;-6.288;2023-04-19T00:17:24;102686.09;;;9.79;100.00
42587;BME280;28216;53.362;-6.288;2023-04-19T00:19:51;102688.09;;;9.76;100.00
42587;BME280;28216;53.362;-6.288;2023-04-19T00:22:16;102672.50;;;9.74;100.00
42587;BME280;28216;53.362;-6.288;2023-04-19T00:24:42;102673.53;;;9.72;100.00
42587;BME280;28216;53.362;-6.288;2023-04-19T00:27:07;102668.63;;;9.67;100.00
42587;BME280;28216;53.362;-6.288;2023-04-19T00:29:33;102659.16;;;9.65;100.00
42587;BME280;28216;53.362;-6.288;2023-04-19T00:31:58;102663.56;;;9.64;100.00
42587;BME280;28216;53.362;-6.288;2023-04-19T00:34:24;102669.84;;;9.62;100.00
42587;BME280;28216;53.362;-6.288;2023-04-19T00:36:50;102671.34;;;9.53;100.00
42587;BME280;28216;53.362;-6.288;2023-04-19T00:39:15;102655.50;;;9.54;100.00
42587;BME280;28216;53.362;-6.288;2023-04-19T00:41:41;102654.88;;;9.51;100.00
42587;BME280;28216;53.362;-6.288;2023-04-19T00:44:06;102655.09;;;9.48;100.00
42587;BME280;28216;53.362;-6.288;2023-04-19T00:46:32;102656.03;;;9.47;100.00
42587;BME280;28216;53.362;-6.288;2023-04-19T00:48:57;102662.34;;;9.44;100.00
42587;BME280;28216;53.362;-6.288;2023-04-19T00:51:23;102666.22;;;9.39;100.00
42587;BME280;28216;53.362;-6.288;2023-04-19T00:53:49;102656.47;;;9.41;100.00
42587;BME280;28216;53.362;-6.288;2023-04-19T00:56:15;102650.41;;;9.40;100.00
42587;BME280;28216;53.362;-6.288;2023-04-19T00:58:41;102653.34;;;9.36;100.00
42587;BME280;28216;53.362;-6.288;2023-04-19T01:01:07;102653.22;;;9.37;100.00
42587;BME280;28216;53.362;-6.288;2023-04-19T01:03:33;102650.81;;;9.34;100.00
42587;BME280;28216;53.362;-6.288;2023-04-19T01:05:59;102649.25;;;9.32;100.00
42587;BME280;28216;53.362;-6.288;2023-04-19T01:08:24;102649.47;;;9.29;100.00
42587;BME280;28216;53.362;-6.288;2023-04-19T01:10:50;102640.75;;;9.28;100.00
42587;BME280;28216;53.362;-6.288;2023-04-19T01:13:15;102653.13;;;9.26;100.00
42587;BME280;28216;53.362;-6.288;2023-04-19T01:15:41;102656.78;;;9.23;100.00
42587;BME280;28216;53.362;-6.288;2023-04-19T01:18:07;102646.31;;;9.23;100.00
42587;BME280;28216;53.362;-6.288;2023-04-19T01:20:33;102655.00;;;9.24;100.00
42587;BME280;28216;53.362;-6.288;2023-04-19T01:22:58;102660.56;;;9.19;100.00
42587;BME280;28216;53.362;-6.288;2023-04-19T01:25:24;102656.25;;;9.18;100.00
42587;BME280;28216;53.362;-6.288;2023-04-19T01:27:50;102653.84;;;9.15;100.00
42587;BME280;28216;53.362;-6.288;2023-04-19T01:30:16;102657.41;;;9.14;100.00
42587;BME280;28216;53.362;-6.288;2023-04-19T01:32:41;102671.34;;;9.15;100.00
42587;BME280;28216;53.362;-6.288;2023-04-19T01:35:07;102661.91;;;9.12;100.00
42587;BME280;28216;53.362;-6.288;2023-04-19T01:37:35;102664.00;;;9.07;100.00
42587;BME280;28216;53.362;-6.288;2023-04-19T01:40:02;102665.66;;;9.08;100.00
42587;BME280;28216;53.362;-6.288;2023-04-19T01:42:27;102664.00;;;9.07;100.00
42587;BME280;28216;53.362;-6.288;2023-04-19T01:44:53;102651.84;;;9.06;100.00
42587;BME280;28216;53.362;-6.288;2023-04-19T01:47:18;102652.91;;;9.04;100.00
42587;BME280;28216;53.362;-6.288;2023-04-19T01:49:44;102647.75;;;9.02;100.00
42587;BME280;28216;53.362;-6.288;2023-04-19T01:52:09;102653.94;;;9.01;100.00
42587;BME280;28216;53.362;-6.288;2023-04-19T01:54:35;102651.53;;;8.98;100.00
42587;BME280;28216;53.362;-6.288;2023-04-19T01:57:01;102660.69;;;8.91;100.00
42587;BME280;28216;53.362;-6.288;2023-04-19T01:59:26;102651.94;;;8.92;100.00
42587;BME280;28216;53.362;-6.288;2023-04-19T02:01:52;102650.06;;;8.94;100.00
42587;BME280;28216;53.362;-6.288;2023-04-19T02:04:19;102644.25;;;8.89;100.00
42587;BME280;28216;53.362;-6.288;2023-04-19T02:06:46;102639.69;;;8.93;100.00
42587;BME280;28216;53.362;-6.288;2023-04-19T02:09:11;102628.47;;;8.90;100.00
42587;BME280;28216;53.362;-6.288;2023-04-19T02:11:37;102629.81;;;8.83;100.00
42587;BME280;28216;53.362;-6.288;2023-04-19T02:14:03;102641.97;;;8.84;100.00
42587;BME280;28216;53.362;-6.288;2023-04-19T02:16:28;102641.84;;;8.86;100.00
42587;BME280;28216;53.362;-6.288;2023-04-19T02:18:54;102628.97;;;8.83;100.00
42587;BME280;28216;53.362;-6.288;2023-04-19T02:21:19;102628.97;;;8.83;100.00
42587;BME280;28216;53.362;-6.288;2023-04-19T02:23:45;102630.03;;;8.80;100.00
42587;BME280;28216;53.362;-6.288;2023-04-19T02:26:10;102618.09;;;8.76;100.00
42587;BME280;28216;53.362;-6.288;2023-04-19T02:28:37;102603.34;;;8.75;100.00
42587;BME280;28216;53.362;-6.288;2023-04-19T02:31:04;102609.28;;;8.65;100.00
42587;BME280;28216;53.362;-6.288;2023-04-19T02:33:30;102606.66;;;8.65;100.00
42587;BME280;28216;53.362;-6.288;2023-04-19T02:35:56;102604.88;;;8.65;100.00
42587;BME280;28216;53.362;-6.288;2023-04-19T02:38:21;102602.38;;;8.64;100.00
42587;BME280;28216;53.362;-6.288;2023-04-19T02:40:47;102610.41;;;8.60;100.00
42587;BME280;28216;53.362;-6.288;2023-04-19T02:43:12;102604.47;;;8.58;100.00
42587;BME280;28216;53.362;-6.288;2023-04-19T02:45:38;102611.75;;;8.53;100.00
42587;BME280;28216;53.362;-6.288;2023-04-19T02:48:04;102597.66;;;8.56;100.00
42587;BME280;28216;53.362;-6.288;2023-04-19T02:50:30;102606.44;;;8.55;100.00
42587;BME280;28216;53.362;-6.288;2023-04-19T02:52:56;102613.44;;;8.54;100.00
42587;BME280;28216;53.362;-6.288;2023-04-19T02:55:22;102591.78;;;8.52;100.00
42587;BME280;28216;53.362;-6.288;2023-04-19T02:57:48;102577.78;;;8.53;100.00
42587;BME280;28216;53.362;-6.288;2023-04-19T03:00:13;102576.84;;;8.54;100.00
42587;BME280;28216;53.362;-6.288;2023-04-19T03:02:40;102563.13;;;8.51;100.00
42587;BME280;28216;53.362;-6.288;2023-04-19T03:05:08;102566.69;;;8.50;100.00
42587;BME280;28216;53.362;-6.288;2023-04-19T03:07:34;102571.50;;;8.43;100.00
42587;BME280;28216;53.362;-6.288;2023-04-19T03:09:59;102563.75;;;8.42;100.00
42587;BME280;28216;53.362;-6.288;2023-04-19T03:12:25;102572.44;;;8.42;100.00
42587;BME280;28216;53.362;-6.288;2023-04-19T03:14:50;102573.47;;;8.40;100.00
42587;BME280;28216;53.362;-6.288;2023-04-19T03:17:16;102571.69;;;8.40;100.00
42587;BME280;28216;53.362;-6.288;2023-04-19T03:19:41;102572.53;;;8.41;100.00
42587;BME280;28216;53.362;-6.288;2023-04-19T03:22:07;102571.78;;;8.39;100.00
42587;BME280;28216;53.362;-6.288;2023-04-19T03:24:32;102573.56;;;8.38;100.00
42587;BME280;28216;53.362;-6.288;2023-04-19T03:26:58;102557.78;;;8.40;100.00
42587;BME280;28216;53.362;-6.288;2023-04-19T03:29:23;102566.25;;;8.43;100.00
42587;BME280;28216;53.362;-6.288;2023-04-19T03:31:49;102552.44;;;8.41;100.00
42587;BME280;28216;53.362;-6.288;2023-04-19T03:34:15;102561.13;;;8.42;100.00
42587;BME280;28216;53.362;-6.288;2023-04-19T03:36:40;102569.06;;;8.40;100.00
42587;BME280;28216;53.362;-6.288;2023-04-19T03:39:06;102572.72;;;8.38;100.00
42587;BME280;28216;53.362;-6.288;2023-04-19T03:41:32;102579.44;;;8.42;100.00
42587;BME280;28216;53.362;-6.288;2023-04-19T03:43:58;102571.88;;;8.37;100.00
42587;BME280;28216;53.362;-6.288;2023-04-19T03:46:24;102567.19;;;8.42;100.00
42587;BME280;28216;53.362;-6.288;2023-04-19T03:48:49;102573.78;;;8.48;100.00
42587;BME280;28216;53.362;-6.288;2023-04-19T03:51:15;102576.72;;;8.43;100.00
42587;BME280;28216;53.362;-6.288;2023-04-19T03:53:41;102564.78;;;8.39;100.00
42587;BME280;28216;53.362;-6.288;2023-04-19T03:56:07;102560.19;;;8.43;100.00
42587;BME280;28216;53.362;-6.288;2023-04-19T03:58:32;102553.28;;;8.42;100.00
42587;BME280;28216;53.362;-6.288;2023-04-19T04:00:58;102551.72;;;8.39;100.00
42587;BME280;28216;53.362;-6.288;2023-04-19T04:03:24;102557.78;;;8.40;100.00
42587;BME280;28216;53.362;-6.288;2023-04-19T04:05:50;102560.50;;;8.38;100.00
42587;BME280;28216;53.362;-6.288;2023-04-19T04:08:15;102560.59;;;8.37;100.00
42587;BME280;28216;53.362;-6.288;2023-04-19T04:10:41;102577.13;;;8.37;100.00
42587;BME280;28216;53.362;-6.288;2023-04-19T04:13:06;102580.56;;;8.38;100.00
42587;BME280;28216;53.362;-6.288;2023-04-19T04:15:31;102597.38;;;8.34;100.00
42587;BME280;28216;53.362;-6.288;2023-04-19T04:17:57;102587.94;;;8.31;100.00
42587;BME280;28216;53.362;-6.288;2023-04-19T04:20:23;102586.34;;;8.43;100.00
42587;BME280;28216;53.362;-6.288;2023-04-19T04:22:48;102589.28;;;8.51;100.00
42587;BME280;28216;53.362;-6.288;2023-04-19T04:25:14;102588.97;;;8.55;100.00
42587;BME280;28216;53.362;-6.288;2023-04-19T04:27:42;102572.56;;;8.53;100.00
42587;BME280;28216;53.362;-6.288;2023-04-19T04:30:11;102571.94;;;8.63;100.00
42587;BME280;28216;53.362;-6.288;2023-04-19T04:32:37;102575.41;;;8.63;100.00
42587;BME280;28216;53.362;-6.288;2023-04-19T04:35:06;102587.22;;;8.69;100.00
42587;BME280;28216;53.362;-6.288;2023-04-19T04:37:33;102576.34;;;8.62;100.00
42587;BME280;28216;53.362;-6.288;2023-04-19T04:40:00;102588.69;;;8.73;100.00
42587;BME280;28216;53.362;-6.288;2023-04-19T04:42:26;102593.72;;;8.76;100.00
42587;BME280;28216;53.362;-6.288;2023-04-19T04:44:52;102590.06;;;8.78;100.00
42587;BME280;28216;53.362;-6.288;2023-04-19T04:47:19;102589.84;;;8.81;100.00
42587;BME280;28216;53.362;-6.288;2023-04-19T04:49:45;102588.91;;;8.82;100.00
42587;BME280;28216;53.362;-6.288;2023-04-19T04:52:11;102591.31;;;8.85;100.00
42587;BME280;28216;53.362;-6.288;2023-04-19T04:54:36;102587.88;;;8.85;100.00
42587;BME280;28216;53.362;-6.288;2023-04-19T04:57:02;102590.38;;;8.86;100.00
42587;BME280;28216;53.362;-6.288;2023-04-19T04:59:28;102590.28;;;8.88;100.00
42587;BME280;28216;53.362;-6.288;2023-04-19T05:01:53;102580.13;;;8.83;100.00
42587;BME280;28216;53.362;-6.288;2023-04-19T05:04:19;102576.66;;;8.83;100.00
42587;BME280;28216;53.362;-6.288;2023-04-19T05:06:44;102570.50;;;8.84;100.00
42587;BME280;28216;53.362;-6.288;2023-04-19T05:09:10;102566.63;;;8.77;100.00
42587;BME280;28216;53.362;-6.288;2023-04-19T05:11:36;102563.47;;;8.84;100.00
42587;BME280;28216;53.362;-6.288;2023-04-19T05:14:02;102558.47;;;8.81;100.00
42587;BME280;28216;53.362;-6.288;2023-04-19T05:16:27;102572.28;;;8.83;100.00
42587;BME280;28216;53.362;-6.288;2023-04-19T05:18:53;102574.06;;;8.83;100.00
42587;BME280;28216;53.362;-6.288;2023-04-19T05:21:19;102567.16;;;8.82;100.00
42587;BME280;28216;53.362;-6.288;2023-04-19T05:23:44;102571.44;;;8.83;100.00
42587;BME280;28216;53.362;-6.288;2023-04-19T05:26:10;102573.13;;;8.84;100.00
42587;BME280;28216;53.362;-6.288;2023-04-19T05:28:37;102585.03;;;8.88;100.00
42587;BME280;28216;53.362;-6.288;2023-04-19T05:31:03;102585.88;;;8.88;100.00
42587;BME280;28216;53.362;-6.288;2023-04-19T05:33:28;102597.06;;;8.90;100.00
42587;BME280;28216;53.362;-6.288;2023-04-19T05:35:54;102599.53;;;8.94;100.00
42587;BME280;28216;53.362;-6.288;2023-04-19T05:38:19;102622.41;;;8.90;100.00
42587;BME280;28216;53.362;-6.288;2023-04-19T05:40:45;102611.84;;;8.91;100.00
42587;BME280;28216;53.362;-6.288;2023-04-19T05:43:10;102610.16;;;8.90;100.00
42587;BME280;28216;53.362;-6.288;2023-04-19T05:45:45;102597.19;;;8.89;100.00
42587;BME280;28216;53.362;-6.288;2023-04-19T05:48:11;102598.03;;;8.89;100.00
42587;BME280;28216;53.362;-6.288;2023-04-19T05:50:38;102597.00;;;8.92;100.00
42587;BME280;28216;53.362;-6.288;2023-04-19T05:53:39;102601.28;;;8.93;100.00
42587;BME280;28216;53.362;-6.288;2023-04-19T05:56:25;102588.00;;;8.96;100.00
42587;BME280;28216;53.362;-6.288;2023-04-19T05:58:50;102587.91;;;8.98;100.00
42587;BME280;28216;53.362;-6.288;2023-04-19T06:01:16;102586.44;;;8.94;100.00
42587;BME280;28216;53.362;-6.288;2023-04-19T06:03:41;102574.28;;;8.93;100.00
42587;BME280;28216;53.362;-6.288;2023-04-19T06:06:06;102584.44;;;8.97;100.00
42587;BME280;28216;53.362;-6.288;2023-04-19T06:08:32;102574.94;;;8.96;100.00
42587;BME280;28216;53.362;-6.288;2023-04-19T06:10:58;102589.88;;;8.94;100.00
42587;BME280;28216;53.362;-6.288;2023-04-19T06:13:24;102580.91;;;8.98;100.00
42587;BME280;28216;53.362;-6.288;2023-04-19T06:15:49;102590.63;;;8.96;100.00
42587;BME280;28216;53.362;-6.288;2023-04-19T06:18:15;102584.25;;;9.00;100.00
42587;BME280;28216;53.362;-6.288;2023-04-19T06:20:40;102588.84;;;9.09;100.00
42587;BME280;28216;53.362;-6.288;2023-04-19T06:23:06;102586.03;;;9.12;100.00
42587;BME280;28216;53.362;-6.288;2023-04-19T06:25:32;102586.44;;;9.06;100.00
42587;BME280;28216;53.362;-6.288;2023-04-19T06:27:57;102590.41;;;9.12;100.00
42587;BME280;28216;53.362;-6.288;2023-04-19T06:30:23;102590.41;;;9.12;100.00
42587;BME280;28216;53.362;-6.288;2023-04-19T06:32:49;102582.34;;;9.15;100.00
42587;BME280;28216;53.362;-6.288;2023-04-19T06:35:14;102590.94;;;9.17;100.00
42587;BME280;28216;53.362;-6.288;2023-04-19T06:37:40;102590.22;;;9.15;100.00
42587;BME280;28216;53.362;-6.288;2023-04-19T06:40:06;102582.66;;;9.10;100.00
42587;BME280;28216;53.362;-6.288;2023-04-19T06:42:38;102604.84;;;9.17;100.00
42587;BME280;28216;53.362;-6.288;2023-04-19T06:45:04;102593.25;;;9.21;100.00
42587;BME280;28216;53.362;-6.288;2023-04-19T06:47:30;102579.31;;;9.21;100.00
42587;BME280;28216;53.362;-6.288;2023-04-19T06:49:56;102576.28;;;9.27;100.00
42587;BME280;28216;53.362;-6.288;2023-04-19T06:52:21;102576.28;;;9.27;100.00
42587;BME280;28216;53.362;-6.288;2023-04-19T06:54:50;102577.84;;;9.30;100.00
42587;BME280;28216;53.362;-6.288;2023-04-19T06:57:17;102570.50;;;9.35;100.00
42587;BME280;28216;53.362;-6.288;2023-04-19T06:59:43;102587.38;;;9.31;100.00
42587;BME280;28216;53.362;-6.288;2023-04-19T07:02:10;102587.97;;;9.47;100.00
42587;BME280;28216;53.362;-6.288;2023-04-19T07:04:36;102586.28;;;9.46;100.00
42587;BME280;28216;53.362;-6.288;2023-04-19T07:07:02;102587.88;;;9.48;100.00
42587;BME280;28216;53.362;-6.288;2023-04-19T07:09:28;102601.50;;;9.41;100.00
42587;BME280;28216;53.362;-6.288;2023-04-19T07:11:53;102588.06;;;9.45;100.00
42587;BME280;28216;53.362;-6.288;2023-04-19T07:14:19;102590.38;;;9.50;100.00
42587;BME280;28216;53.362;-6.288;2023-04-19T07:16:45;102597.28;;;9.51;100.00
42587;BME280;28216;53.362;-6.288;2023-04-19T07:19:11;102591.22;;;9.50;100.00
42587;BME280;28216;53.362;-6.288;2023-04-19T07:21:36;102589.66;;;9.48;100.00
42587;BME280;28216;53.362;-6.288;2023-04-19T07:24:06;102598.22;;;9.50;100.00
42587;BME280;28216;53.362;-6.288;2023-04-19T07:26:32;102591.84;;;9.54;100.00
42587;BME280;28216;53.362;-6.288;2023-04-19T07:28:58;102602.19;;;9.55;100.00
42587;BME280;28216;53.362;-6.288;2023-04-19T07:31:24;102591.44;;;9.47;100.00
42587;BME280;28216;53.362;-6.288;2023-04-19T07:33:50;102588.19;;;9.44;100.00
42587;BME280;28216;53.362;-6.288;2023-04-19T07:36:16;102589.53;;;9.49;100.00
42587;BME280;28216;53.362;-6.288;2023-04-19T07:38:42;102582.19;;;9.54;100.00
42587;BME280;28216;53.362;-6.288;2023-04-19T07:41:07;102589.84;;;9.57;100.00
42587;BME280;28216;53.362;-6.288;2023-04-19T07:43:33;102584.91;;;9.53;100.00
42587;BME280;28216;53.362;-6.288;2023-04-19T07:45:59;102586.91;;;9.49;100.00
42587;BME280;28216;53.362;-6.288;2023-04-19T07:48:25;102584.38;;;9.61;100.00
42587;BME280;28216;53.362;-6.288;2023-04-19T07:50:51;102574.97;;;9.58;100.00
42587;BME280;28216;53.362;-6.288;2023-04-19T07:53:16;102581.44;;;9.65;100.00
42587;BME280;28216;53.362;-6.288;2023-04-19T07:55:42;102572.75;;;9.65;100.00
42587;BME280;28216;53.362;-6.288;2023-04-19T07:58:08;102583.22;;;9.77;100.00
42587;BME280;28216;53.362;-6.288;2023-04-19T08:00:33;102582.78;;;9.83;100.00
42587;BME280;28216;53.362;-6.288;2023-04-19T08:03:01;102582.34;;;9.90;100.00
42587;BME280;28216;53.362;-6.288;2023-04-19T08:05:26;102589.03;;;9.94;100.00
42587;BME280;28216;53.362;-6.288;2023-04-19T08:07:52;102575.38;;;10.01;100.00
42587;BME280;28216;53.362;-6.288;2023-04-19T08:10:17;102581.63;;;10.11;100.00
42587;BME280;28216;53.362;-6.288;2023-04-19T08:12:43;102580.31;;;10.17;100.00
42587;BME280;28216;53.362;-6.288;2023-04-19T08:15:09;102586.22;;;10.21;100.00
42587;BME280;28216;53.362;-6.288;2023-04-19T08:17:34;102591.34;;;10.22;100.00
42587;BME280;28216;53.362;-6.288;2023-04-19T08:19:59;102580.69;;;10.36;100.00
42587;BME280;28216;53.362;-6.288;2023-04-19T08:22:25;102577.53;;;10.44;100.00
42587;BME280;28216;53.362;-6.288;2023-04-19T08:24:51;102590.63;;;10.44;100.00
42587;BME280;28216;53.362;-6.288;2023-04-19T08:27:17;102579.94;;;10.58;100.00
42587;BME280;28216;53.362;-6.288;2023-04-19T08:29:43;102594.25;;;10.54;100.00
42587;BME280;28216;53.362;-6.288;2023-04-19T08:32:10;102581.63;;;10.59;100.00
42587;BME280;28216;53.362;-6.288;2023-04-19T08:34:38;102588.44;;;10.38;100.00
42587;BME280;28216;53.362;-6.288;2023-04-19T08:37:04;102602.38;;;10.38;100.00
42587;BME280;28216;53.362;-6.288;2023-04-19T08:39:30;102590.56;;;10.33;100.00
42587;BME280;28216;53.362;-6.288;2023-04-19T08:42:01;102598.03;;;10.50;100.00
42587;BME280;28216;53.362;-6.288;2023-04-19T08:44:29;102585.53;;;10.54;100.00
42587;BME280;28216;53.362;-6.288;2023-04-19T08:46:57;102586.16;;;10.57;100.00
42587;BME280;28216;53.362;-6.288;2023-04-19T08:49:23;102592.00;;;10.61;100.00
42587;BME280;28216;53.362;-6.288;2023-04-19T08:51:49;102588.84;;;10.44;100.00
42587;BME280;28216;53.362;-6.288;2023-04-19T08:54:15;102604.28;;;10.60;100.00
42587;BME280;28216;53.362;-6.288;2023-04-19T08:56:42;102599.38;;;10.56;100.00
42587;BME280;28216;53.362;-6.288;2023-04-19T08:59:08;102591.63;;;10.54;100.00
42587;BME280;28216;53.362;-6.288;2023-04-19T09:01:33;102593.97;;;10.46;100.00
42587;BME280;28216;53.362;-6.288;2023-04-19T09:04:03;102602.34;;;10.51;100.00
42587;BME280;28216;53.362;-6.288;2023-04-19T09:06:39;102602.00;;;10.32;100.00
42587;BME280;28216;53.362;-6.288;2023-04-19T09:09:19;102593.75;;;10.25;100.00
42587;BME280;28216;53.362;-6.288;2023-04-19T09:11:45;102600.81;;;10.36;100.00
42587;BME280;28216;53.362;-6.288;2023-04-19T09:14:13;102607.63;;;10.38;100.00
42587;BME280;28216;53.362;-6.288;2023-04-19T09:16:39;102599.56;;;10.41;100.00
42587;BME280;28216;53.362;-6.288;2023-04-19T09:19:06;102605.00;;;10.38;100.00
42587;BME280;28216;53.362;-6.288;2023-04-19T09:21:34;102589.06;;;10.41;100.00
42587;BME280;28216;53.362;-6.288;2023-04-19T09:24:01;102591.28;;;10.59;100.00
42587;BME280;28216;53.362;-6.288;2023-04-19T09:26:27;102594.28;;;10.65;100.00
42587;BME280;28216;53.362;-6.288;2023-04-19T09:28:59;102593.47;;;10.76;100.00
42587;BME280;28216;53.362;-6.288;2023-04-19T09:31:27;102589.44;;;10.83;100.00
42587;BME280;28216;53.362;-6.288;2023-04-19T09:33:54;102599.22;;;10.81;100.00
42587;BME280;28216;53.362;-6.288;2023-04-19T09:36:31;102592.63;;;10.75;100.00
42587;BME280;28216;53.362;-6.288;2023-04-19T09:38:57;102602.97;;;10.66;100.00
42587;BME280;28216;53.362;-6.288;2023-04-19T09:41:26;102594.88;;;10.69;100.00
42587;BME280;28216;53.362;-6.288;2023-04-19T09:43:52;102595.84;;;10.68;100.00
42587;BME280;28216;53.362;-6.288;2023-04-19T09:46:31;102602.38;;;10.62;100.00
42587;BME280;28216;53.362;-6.288;2023-04-19T09:51:45;102597.97;;;10.63;100.00
42587;BME280;28216;53.362;-6.288;2023-04-19T09:54:13;102590.94;;;10.63;100.00
42587;BME280;28216;53.362;-6.288;2023-04-19T09:56:39;102586.75;;;10.61;100.00
42587;BME280;28216;53.362;-6.288;2023-04-19T09:59:06;102597.94;;;10.52;100.00
42587;BME280;28216;53.362;-6.288;2023-04-19T10:01:38;102580.88;;;10.46;100.00
42587;BME280;28216;53.362;-6.288;2023-04-19T10:04:04;102579.19;;;10.45;100.00
42587;BME280;28216;53.362;-6.288;2023-04-19T10:06:31;102589.84;;;10.55;100.00
42587;BME280;28216;53.362;-6.288;2023-04-19T10:09:00;102612.00;;;10.50;100.00
42587;BME280;28216;53.362;-6.288;2023-04-19T10:11:34;102589.78;;;10.43;100.00
42587;BME280;28216;53.362;-6.288;2023-04-19T10:14:08;102587.28;;;10.42;100.00
42587;BME280;28216;53.362;-6.288;2023-04-19T10:16:34;102592.47;;;10.55;100.00
42587;BME280;28216;53.362;-6.288;2023-04-19T10:19:11;102582.13;;;10.64;100.00
42587;BME280;28216;53.362;-6.288;2023-04-19T10:21:38;102616.09;;;10.66;100.00
42587;BME280;28216;53.362;-6.288;2023-04-19T10:24:06;102589.38;;;10.61;100.00
42587;BME280;28216;53.362;-6.288;2023-04-19T10:27:05;102585.47;;;10.77;100.00
42587;BME280;28216;53.362;-6.288;2023-04-19T10:32:16;102584.47;;;11.13;100.00
42587;BME280;28216;53.362;-6.288;2023-04-19T10:34:42;102583.78;;;11.23;100.00
42587;BME280;28216;53.362;-6.288;2023-04-19T10:37:11;102581.50;;;11.40;100.00
42587;BME280;28216;53.362;-6.288;2023-04-19T10:39:39;102582.09;;;11.55;100.00
42587;BME280;28216;53.362;-6.288;2023-04-19T10:42:05;102582.66;;;11.70;100.00
42587;BME280;28216;53.362;-6.288;2023-04-19T10:44:31;102578.25;;;11.70;100.00
42587;BME280;28216;53.362;-6.288;2023-04-19T10:46:57;102567.03;;;11.80;100.00
42587;BME280;28216;53.362;-6.288;2023-04-19T10:49:23;102568.19;;;11.75;100.00
42587;BME280;28216;53.362;-6.288;2023-04-19T10:51:50;102577.53;;;11.80;100.00
42587;BME280;28216;53.362;-6.288;2023-04-19T10:56:58;102571.31;;;11.69;100.00
42587;BME280;28216;53.362;-6.288;2023-04-19T10:59:25;102582.22;;;11.54;100.00
42587;BME280;28216;53.362;-6.288;2023-04-19T11:07:02;102565.84;;;11.50;100.00
42587;BME280;28216;53.362;-6.288;2023-04-19T11:09:32;102577.31;;;11.49;100.00
42587;BME280;28216;53.362;-6.288;2023-04-19T11:14:34;102584.38;;;11.49;100.00
42587;BME280;28216;53.362;-6.288;2023-04-19T11:17:03;102578.53;;;11.45;100.00
42587;BME280;28216;53.362;-6.288;2023-04-19T11:19:38;102587.84;;;11.38;100.00
42587;BME280;28216;53.362;-6.288;2023-04-19T11:22:03;102579.72;;;11.30;100.00
42587;BME280;28216;53.362;-6.288;2023-04-19T11:24:29;102577.81;;;11.32;100.00
42587;BME280;28216;53.362;-6.288;2023-04-19T11:26:55;102577.56;;;11.24;100.00
42587;BME280;28216;53.362;-6.288;2023-04-19T11:29:21;102581.97;;;11.34;100.00
42587;BME280;28216;53.362;-6.288;2023-04-19T11:31:47;102571.47;;;11.34;100.00
42587;BME280;28216;53.362;-6.288;2023-04-19T11:34:12;102578.16;;;11.27;100.00
42587;BME280;28216;53.362;-6.288;2023-04-19T11:36:51;102573.25;;;11.45;100.00
42587;BME280;28216;53.362;-6.288;2023-04-19T11:39:17;102583.53;;;11.48;100.00
42587;BME280;28216;53.362;-6.288;2023-04-19T11:41:43;102568.50;;;11.39;100.00
42587;BME280;28216;53.362;-6.288;2023-04-19T11:44:18;102569.91;;;11.54;100.00
42587;BME280;28216;53.362;-6.288;2023-04-19T11:47:01;102564.41;;;11.57;100.00
42587;BME280;28216;53.362;-6.288;2023-04-19T11:49:28;102573.97;;;11.58;100.00
42587;BME280;28216;53.362;-6.288;2023-04-19T11:51:59;102557.63;;;11.43;100.00
42587;BME280;28216;53.362;-6.288;2023-04-19T11:54:25;102579.22;;;11.58;100.00
42587;BME280;28216;53.362;-6.288;2023-04-19T11:57:01;102577.56;;;11.46;100.00
42587;BME280;28216;53.362;-6.288;2023-04-19T11:59:28;102581.38;;;11.53;100.00
42587;BME280;28216;53.362;-6.288;2023-04-19T12:01:54;102566.56;;;11.52;100.00
42587;BME280;28216;53.362;-6.288;2023-04-19T12:04:20;102571.59;;;11.55;100.00
42587;BME280;28216;53.362;-6.288;2023-04-19T12:06:58;102560.25;;;11.55;100.00
42587;BME280;28216;53.362;-6.288;2023-04-19T12:09:24;102568.91;;;11.89;100.00
42587;BME280;28216;53.362;-6.288;2023-04-19T12:11:49;102574.66;;;11.94;100.00
42587;BME280;28216;53.362;-6.288;2023-04-19T12:14:17;102570.38;;;11.93;100.00
42587;BME280;28216;53.362;-6.288;2023-04-19T12:17:09;102552.22;;;11.90;100.00
42587;BME280;28216;53.362;-6.288;2023-04-19T12:19:37;102559.34;;;11.99;100.00
42587;BME280;28216;53.362;-6.288;2023-04-19T12:22:24;102553.84;;;12.02;100.00
42587;BME280;28216;53.362;-6.288;2023-04-19T12:24:53;102550.19;;;11.93;100.00
42587;BME280;28216;53.362;-6.288;2023-04-19T12:27:18;102544.03;;;12.04;100.00
42587;BME280;28216;53.362;-6.288;2023-04-19T12:29:44;102551.44;;;12.10;100.00
42587;BME280;28216;53.362;-6.288;2023-04-19T12:32:10;102546.13;;;12.21;100.00
42587;BME280;28216;53.362;-6.288;2023-04-19T12:34:36;102540.03;;;12.21;100.00
42587;BME280;28216;53.362;-6.288;2023-04-19T12:37:01;102554.94;;;12.31;100.00
42587;BME280;28216;53.362;-6.288;2023-04-19T12:39:30;102559.50;;;12.50;100.00
42587;BME280;28216;53.362;-6.288;2023-04-19T12:41:56;102526.69;;;12.54;100.00
42587;BME280;28216;53.362;-6.288;2023-04-19T12:44:21;102536.25;;;12.55;100.00
42587;BME280;28216;53.362;-6.288;2023-04-19T12:46:48;102540.81;;;12.53;100.00
42587;BME280;28216;53.362;-6.288;2023-04-19T12:49:13;102524.31;;;12.51;100.00